Date,TemperatureHighF,TemperatureAvgF,TemperatureLowF,DewpointHighF,DewpointAvgF,DewpointLowF,HumidityHigh,HumidityAvg,HumidityLow,PressureMaxIn,PressureMinIn,WindSpeedMaxMPH,WindSpeedAvgMPH,GustSpeedMaxMPH,PrecipitationSumIn
2013-1-1,31.0,21.9,12.4,27.8,18.2,8.2,91,86,77,30.02,29.78,12,1,19,0.00
2013-1-2,25.2,16.8,7.3,19.6,13.1,2.0,92,85,76,30.23,29.97,13,1,23,0.01
2013-1-3,26.9,18.5,6.6,24.6,15.2,1.7,92,87,78,30.22,29.96,11,1,17,0.00
2013-1-4,34.8,28.9,25.4,26.0,23.3,20.3,91,80,67,29.97,29.86,13,3,23,0.00
2013-1-5,32.1,29.2,26.8,28.1,24.8,21.7,92,84,80,30.27,29.96,11,2,20,0.00
2013-1-6,38.5,32.4,28.1,31.7,28.5,23.3,94,86,72,30.08,29.88,10,2,14,0.07
2013-1-7,32.9,26.3,22.5,31.4,23.4,19.8,95,89,80,30.38,30.00,13,2,23,0.00
2013-1-8,42.5,32.7,27.8,26.3,23.4,21.2,82,69,52,30.33,30.19,17,2,22,0.13
2013-1-9,45.8,37.4,30.1,36.8,28.6,22.9,81,71,62,30.30,29.94,16,4,25,0.09
2013-1-10,38.6,33.9,29.0,29.4,27.3,24.7,88,77,67,30.54,30.24,11,1,18,0.00
2013-1-11,40.3,36.6,29.4,37.9,30.4,23.1,95,79,57,30.48,29.96,15,4,25,0.17
2013-1-12,48.1,44.1,39.3,46.3,42.5,37.7,98,94,85,30.05,29.99,11,3,15,0.00
2013-1-13,56.2,50.3,44.1,52.8,48.3,42.9,97,93,87,30.03,29.80,14,3,20,0.00
2013-1-14,53.3,37.4,28.3,51.3,33.1,21.9,96,84,73,30.34,29.72,10,2,19,0.03
2013-1-15,31.0,27.9,26.6,24.7,22.6,20.7,87,80,71,30.37,30.19,5,0,7,0.00
2013-1-16,33.0,29.8,27.2,30.7,26.6,22.7,95,88,79,30.19,29.77,10,2,14,0.00
2013-1-17,32.6,25.1,17.5,28.2,19.1,11.8,91,78,68,30.16,29.84,8,1,21,0.00
2013-1-18,26.2,17.0,7.4,18.4,10.5,3.7,89,77,58,30.40,30.12,15,2,22,0.01
2013-1-19,44.9,37.8,26.5,30.0,22.5,14.1,60,54,49,30.14,29.63,14,4,20,0.02
2013-1-20,43.4,30.7,17.2,34.4,20.1,9.9,92,65,52,30.03,29.42,17,5,36,0.02
2013-1-21,21.8,17.4,12.4,17.5,12.0,7.7,89,79,70,30.03,29.84,4,1,16,0.00
2013-1-22,16.7,9.8,5.5,10.3,1.1,-3.0,86,67,54,30.16,29.84,15,3,25,0.01
2013-1-23,12.6,4.5,-1.0,5.1,-0.2,-4.0,88,80,66,30.23,30.14,6,0,7,0.00
2013-1-24,13.5,6.1,-1.0,7.6,1.8,-5.0,87,82,70,30.48,30.13,11,1,16,0.00
2013-1-25,18.2,9.6,4.3,9.8,5.1,1.3,97,82,65,30.46,30.09,2,0,6,0.00
2013-1-26,18.8,10.5,3.5,13.5,6.2,0.7,91,83,69,30.38,30.09,3,0,5,0.00
2013-1-27,27.3,18.3,9.9,16.8,12.7,7.3,92,80,58,30.55,30.37,6,0,9,0.02
2013-1-28,39.1,30.0,18.4,38.5,26.4,12.7,98,87,69,30.41,29.88,15,3,22,0.26
2013-1-29,49.3,41.3,33.9,48.7,40.7,33.3,99,98,96,30.05,29.83,17,2,18,0.31
2013-1-30,59.0,53.8,49.0,55.6,51.5,47.7,98,92,88,29.82,29.07,18,6,27,0.36
2013-1-31,52.8,31.6,18.1,51.9,27.0,15.4,97,83,66,29.66,28.93,18,5,32,0.43